sensor_id;sensor_type;location;lat;lon;timestamp;temperature;humidity
7000;DHT22;3540;53.242;10.408;2023-03-31T00:00:32;10.10;95.80
7000;DHT22;3540;53.242;10.408;2023-03-31T00:02:58;10.00;1.00
7000;DHT22;3540;53.242;10.408;2023-03-31T00:05:25;10.00;1.00
7000;DHT22;3540;53.242;10.408;2023-03-31T00:07:55;10.00;1.00
7000;DHT22;3540;53.242;10.408;2023-03-31T00:10:28;10.00;1.00
7000;DHT22;3540;53.242;10.408;2023-03-31T00:12:54;10.00;99.90
7000;DHT22;3540;53.242;10.408;2023-03-31T00:15:19;10.00;1.00
7000;DHT22;3540;53.242;10.408;2023-03-31T00:17:45;9.90;99.90
7000;DHT22;3540;53.242;10.408;2023-03-31T00:20:12;9.90;99.90
7000;DHT22;3540;53.242;10.408;2023-03-31T00:22:39;9.90;1.00
7000;DHT22;3540;53.242;10.408;2023-03-31T00:25:08;9.90;1.00
7000;DHT22;3540;53.242;10.408;2023-03-31T00:27:35;9.90;1.00
7000;DHT22;3540;53.242;10.408;2023-03-31T00:30:01;9.90;99.90
7000;DHT22;3540;53.242;10.408;2023-03-31T00:32:26;9.80;1.00
7000;DHT22;3540;53.242;10.408;2023-03-31T00:34:52;9.80;1.00
7000;DHT22;3540;53.242;10.408;2023-03-31T00:37:18;9.80;99.90
7000;DHT22;3540;53.242;10.408;2023-03-31T00:39:43;9.80;1.00
7000;DHT22;3540;53.242;10.408;2023-03-31T00:42:10;9.80;1.00
7000;DHT22;3540;53.242;10.408;2023-03-31T00:47:48;9.70;99.90
7000;DHT22;3540;53.242;10.408;2023-03-31T00:50:16;9.70;1.00
7000;DHT22;3540;53.242;10.408;2023-03-31T00:52:44;9.70;1.00
7000;DHT22;3540;53.242;10.408;2023-03-31T00:55:16;9.60;1.00
7000;DHT22;3540;53.242;10.408;2023-03-31T00:57:44;9.60;99.90
7000;DHT22;3540;53.242;10.408;2023-03-31T01:00:13;9.60;99.90
7000;DHT22;3540;53.242;10.408;2023-03-31T01:02:47;9.50;1.00
7000;DHT22;3540;53.242;10.408;2023-03-31T01:05:30;9.50;99.90
7000;DHT22;3540;53.242;10.408;2023-03-31T01:07:58;9.40;1.00
7000;DHT22;3540;53.242;10.408;2023-03-31T01:10:25;9.40;8.40
7000;DHT22;3540;53.242;10.408;2023-03-31T01:12:53;9.30;1.00
7000;DHT22;3540;53.242;10.408;2023-03-31T01:15:20;9.30;1.00
7000;DHT22;3540;53.242;10.408;2023-03-31T01:17:47;9.30;99.90
7000;DHT22;3540;53.242;10.408;2023-03-31T01:34:53;9.20;1.00
7000;DHT22;3540;53.242;10.408;2023-03-31T01:51:25;9.20;82.70
7000;DHT22;3540;53.242;10.408;2023-03-31T01:54:21;9.20;87.80
7000;DHT22;3540;53.242;10.408;2023-03-31T01:56:56;9.20;99.90
7000;DHT22;3540;53.242;10.408;2023-03-31T01:59:30;9.20;99.90
7000;DHT22;3540;53.242;10.408;2023-03-31T02:01:59;9.30;99.90
7000;DHT22;3540;53.242;10.408;2023-03-31T02:04:35;9.20;99.90
7000;DHT22;3540;53.242;10.408;2023-03-31T02:07:08;9.20;99.90
7000;DHT22;3540;53.242;10.408;2023-03-31T02:09:40;9.20;99.90
7000;DHT22;3540;53.242;10.408;2023-03-31T02:12:09;9.10;99.90
7000;DHT22;3540;53.242;10.408;2023-03-31T02:14:38;9.10;99.90
7000;DHT22;3540;53.242;10.408;2023-03-31T02:17:06;9.10;99.90
7000;DHT22;3540;53.242;10.408;2023-03-31T02:19:38;9.10;99.90
7000;DHT22;3540;53.242;10.408;2023-03-31T02:22:06;9.10;99.90
7000;DHT22;3540;53.242;10.408;2023-03-31T02:24:35;9.10;99.90
7000;DHT22;3540;53.242;10.408;2023-03-31T02:27:11;9.10;99.90
7000;DHT22;3540;53.242;10.408;2023-03-31T02:29:39;9.10;99.90
7000;DHT22;3540;53.242;10.408;2023-03-31T02:34:36;9.00;99.90
7000;DHT22;3540;53.242;10.408;2023-03-31T02:37:02;9.00;99.90
7000;DHT22;3540;53.242;10.408;2023-03-31T02:39:34;9.00;99.90
7000;DHT22;3540;53.242;10.408;2023-03-31T02:42:01;9.00;99.90
7000;DHT22;3540;53.242;10.408;2023-03-31T02:44:35;9.00;99.90
7000;DHT22;3540;53.242;10.408;2023-03-31T02:47:02;8.90;99.90
7000;DHT22;3540;53.242;10.408;2023-03-31T02:49:31;8.90;99.90
7000;DHT22;3540;53.242;10.408;2023-03-31T03:00:33;8.70;99.90
7000;DHT22;3540;53.242;10.408;2023-03-31T03:17:09;8.50;99.90
7000;DHT22;3540;53.242;10.408;2023-03-31T03:19:36;8.60;99.90
7000;DHT22;3540;53.242;10.408;2023-03-31T03:22:02;8.50;99.90
7000;DHT22;3540;53.242;10.408;2023-03-31T03:24:27;8.50;99.90
7000;DHT22;3540;53.242;10.408;2023-03-31T03:26:55;8.50;99.90
7000;DHT22;3540;53.242;10.408;2023-03-31T03:29:21;8.50;99.90
7000;DHT22;3540;53.242;10.408;2023-03-31T03:31:46;8.40;99.90
7000;DHT22;3540;53.242;10.408;2023-03-31T03:34:12;8.40;99.90
7000;DHT22;3540;53.242;10.408;2023-03-31T03:36:38;8.40;99.90
7000;DHT22;3540;53.242;10.408;2023-03-31T03:39:05;8.40;99.90
7000;DHT22;3540;53.242;10.408;2023-03-31T03:41:32;8.40;99.90
7000;DHT22;3540;53.242;10.408;2023-03-31T03:43:59;8.50;99.90
7000;DHT22;3540;53.242;10.408;2023-03-31T03:46:25;8.70;99.90
7000;DHT22;3540;53.242;10.408;2023-03-31T03:48:51;8.80;99.90
7000;DHT22;3540;53.242;10.408;2023-03-31T03:51:16;8.80;99.90
7000;DHT22;3540;53.242;10.408;2023-03-31T03:53:42;8.90;99.90
7000;DHT22;3540;53.242;10.408;2023-03-31T03:56:08;8.90;99.90
7000;DHT22;3540;53.242;10.408;2023-03-31T03:58:33;9.10;99.90
7000;DHT22;3540;53.242;10.408;2023-03-31T04:00:59;9.10;99.90
7000;DHT22;3540;53.242;10.408;2023-03-31T04:03:25;9.20;99.90
7000;DHT22;3540;53.242;10.408;2023-03-31T04:05:50;9.30;99.90
7000;DHT22;3540;53.242;10.408;2023-03-31T04:08:17;9.30;99.90
7000;DHT22;3540;53.242;10.408;2023-03-31T04:10:44;9.40;99.90
7000;DHT22;3540;53.242;10.408;2023-03-31T04:13:11;9.40;99.90
7000;DHT22;3540;53.242;10.408;2023-03-31T04:15:36;9.40;99.90
7000;DHT22;3540;53.242;10.408;2023-03-31T04:18:02;9.40;1.00
7000;DHT22;3540;53.242;10.408;2023-03-31T04:20:28;9.50;1.00
7000;DHT22;3540;53.242;10.408;2023-03-31T04:22:55;9.50;16.70
7000;DHT22;3540;53.242;10.408;2023-03-31T04:25:21;9.60;99.90
7000;DHT22;3540;53.242;10.408;2023-03-31T04:27:49;9.60;1.00
7000;DHT22;3540;53.242;10.408;2023-03-31T04:30:21;9.60;1.00
7000;DHT22;3540;53.242;10.408;2023-03-31T04:32:51;9.60;1.00
7000;DHT22;3540;53.242;10.408;2023-03-31T04:35:18;9.70;1.00
7000;DHT22;3540;53.242;10.408;2023-03-31T04:37:49;9.70;24.60
7000;DHT22;3540;53.242;10.408;2023-03-31T04:40:15;9.70;1.00
7000;DHT22;3540;53.242;10.408;2023-03-31T04:42:44;9.70;99.90
7000;DHT22;3540;53.242;10.408;2023-03-31T04:45:11;9.80;1.00
7000;DHT22;3540;53.242;10.408;2023-03-31T04:47:37;9.80;1.00
7000;DHT22;3540;53.242;10.408;2023-03-31T04:50:03;9.80;1.00
7000;DHT22;3540;53.242;10.408;2023-03-31T04:52:28;9.80;99.90
7000;DHT22;3540;53.242;10.408;2023-03-31T04:54:54;9.80;99.90
7000;DHT22;3540;53.242;10.408;2023-03-31T04:57:20;9.90;1.00
7000;DHT22;3540;53.242;10.408;2023-03-31T04:59:45;9.90;1.00
7000;DHT22;3540;53.242;10.408;2023-03-31T05:02:11;9.80;1.00
7000;DHT22;3540;53.242;10.408;2023-03-31T05:04:37;9.80;1.00
7000;DHT22;3540;53.242;10.408;2023-03-31T05:07:03;9.80;1.00
7000;DHT22;3540;53.242;10.408;2023-03-31T05:09:28;9.80;1.00
7000;DHT22;3540;53.242;10.408;2023-03-31T05:11:55;9.80;1.00
7000;DHT22;3540;53.242;10.408;2023-03-31T05:14:21;9.70;1.00
7000;DHT22;3540;53.242;10.408;2023-03-31T05:16:47;9.70;1.00
7000;DHT22;3540;53.242;10.408;2023-03-31T05:19:12;9.70;1.00
7000;DHT22;3540;53.242;10.408;2023-03-31T05:21:38;9.70;1.00
7000;DHT22;3540;53.242;10.408;2023-03-31T05:24:04;9.60;45.10
7000;DHT22;3540;53.242;10.408;2023-03-31T05:26:29;9.60;99.90
7000;DHT22;3540;53.242;10.408;2023-03-31T05:28:55;9.60;99.90
7000;DHT22;3540;53.242;10.408;2023-03-31T05:31:21;9.60;99.90
7000;DHT22;3540;53.242;10.408;2023-03-31T05:33:47;9.60;99.90
7000;DHT22;3540;53.242;10.408;2023-03-31T05:36:14;9.60;99.90
7000;DHT22;3540;53.242;10.408;2023-03-31T05:38:40;9.60;1.00
7000;DHT22;3540;53.242;10.408;2023-03-31T05:41:07;9.60;99.90
7000;DHT22;3540;53.242;10.408;2023-03-31T05:43:34;9.50;99.90
7000;DHT22;3540;53.242;10.408;2023-03-31T05:46:00;9.50;99.90
7000;DHT22;3540;53.242;10.408;2023-03-31T05:48:26;9.50;1.00
7000;DHT22;3540;53.242;10.408;2023-03-31T05:50:56;9.50;1.00
7000;DHT22;3540;53.242;10.408;2023-03-31T05:53:23;9.60;1.00
7000;DHT22;3540;53.242;10.408;2023-03-31T05:55:48;9.60;1.00
7000;DHT22;3540;53.242;10.408;2023-03-31T05:58:14;9.60;1.00
7000;DHT22;3540;53.242;10.408;2023-03-31T06:00:40;9.60;1.00
7000;DHT22;3540;53.242;10.408;2023-03-31T06:03:05;9.70;1.00
7000;DHT22;3540;53.242;10.408;2023-03-31T06:05:33;9.70;1.00
7000;DHT22;3540;53.242;10.408;2023-03-31T06:07:59;9.80;1.00
7000;DHT22;3540;53.242;10.408;2023-03-31T06:10:24;9.80;99.90
7000;DHT22;3540;53.242;10.408;2023-03-31T06:12:50;9.80;1.00
7000;DHT22;3540;53.242;10.408;2023-03-31T06:15:16;9.90;99.90
7000;DHT22;3540;53.242;10.408;2023-03-31T06:17:41;9.90;68.80
7000;DHT22;3540;53.242;10.408;2023-03-31T06:20:07;9.90;99.90
7000;DHT22;3540;53.242;10.408;2023-03-31T06:22:33;10.00;1.00
7000;DHT22;3540;53.242;10.408;2023-03-31T06:24:59;10.10;99.90
7000;DHT22;3540;53.242;10.408;2023-03-31T06:27:25;10.10;1.00
7000;DHT22;3540;53.242;10.408;2023-03-31T06:29:50;10.10;99.90
7000;DHT22;3540;53.242;10.408;2023-03-31T06:32:16;10.20;99.90
7000;DHT22;3540;53.242;10.408;2023-03-31T06:34:42;10.20;99.90
7000;DHT22;3540;53.242;10.408;2023-03-31T06:37:07;10.30;50.70
7000;DHT22;3540;53.242;10.408;2023-03-31T06:39:33;10.30;1.00
7000;DHT22;3540;53.242;10.408;2023-03-31T06:41:59;10.50;1.00
7000;DHT22;3540;53.242;10.408;2023-03-31T06:44:24;10.50;1.00
7000;DHT22;3540;53.242;10.408;2023-03-31T06:46:50;10.40;99.90
7000;DHT22;3540;53.242;10.408;2023-03-31T06:49:16;10.50;1.00
7000;DHT22;3540;53.242;10.408;2023-03-31T06:51:41;10.50;99.90
7000;DHT22;3540;53.242;10.408;2023-03-31T06:54:07;10.60;99.90
7000;DHT22;3540;53.242;10.408;2023-03-31T06:56:33;10.60;99.90
7000;DHT22;3540;53.242;10.408;2023-03-31T06:58:58;10.70;99.90
7000;DHT22;3540;53.242;10.408;2023-03-31T07:01:24;10.70;99.90
7000;DHT22;3540;53.242;10.408;2023-03-31T07:03:50;10.90;1.00
7000;DHT22;3540;53.242;10.408;2023-03-31T07:06:16;10.90;99.90
7000;DHT22;3540;53.242;10.408;2023-03-31T07:08:41;11.00;24.50
7000;DHT22;3540;53.242;10.408;2023-03-31T07:11:07;11.00;1.00
7000;DHT22;3540;53.242;10.408;2023-03-31T07:13:32;11.00;1.00
7000;DHT22;3540;53.242;10.408;2023-03-31T07:15:58;11.00;1.00
7000;DHT22;3540;53.242;10.408;2023-03-31T07:18:24;11.00;1.00
7000;DHT22;3540;53.242;10.408;2023-03-31T07:20:57;11.00;1.00
7000;DHT22;3540;53.242;10.408;2023-03-31T07:23:23;11.00;1.00
7000;DHT22;3540;53.242;10.408;2023-03-31T07:25:49;10.90;1.00
7000;DHT22;3540;53.242;10.408;2023-03-31T07:28:15;10.80;1.00
7000;DHT22;3540;53.242;10.408;2023-03-31T07:30:41;10.80;1.00
7000;DHT22;3540;53.242;10.408;2023-03-31T07:33:08;10.80;1.00
7000;DHT22;3540;53.242;10.408;2023-03-31T07:35:37;10.90;1.00
7000;DHT22;3540;53.242;10.408;2023-03-31T07:38:03;10.90;1.00
7000;DHT22;3540;53.242;10.408;2023-03-31T07:40:28;10.90;1.00
7000;DHT22;3540;53.242;10.408;2023-03-31T07:42:54;10.90;1.00
7000;DHT22;3540;53.242;10.408;2023-03-31T07:45:22;10.80;1.00
7000;DHT22;3540;53.242;10.408;2023-03-31T07:47:49;10.70;1.00
7000;DHT22;3540;53.242;10.408;2023-03-31T07:50:15;10.70;75.60
7000;DHT22;3540;53.242;10.408;2023-03-31T07:52:41;10.60;99.90
7000;DHT22;3540;53.242;10.408;2023-03-31T07:55:08;10.50;1.00
7000;DHT22;3540;53.242;10.408;2023-03-31T07:57:35;10.40;1.00
7000;DHT22;3540;53.242;10.408;2023-03-31T08:00:00;10.40;1.00
7000;DHT22;3540;53.242;10.408;2023-03-31T08:02:30;10.50;1.00
7000;DHT22;3540;53.242;10.408;2023-03-31T08:04:56;10.70;1.00
7000;DHT22;3540;53.242;10.408;2023-03-31T08:07:22;10.70;1.00
7000;DHT22;3540;53.242;10.408;2023-03-31T08:09:48;10.80;1.00
7000;DHT22;3540;53.242;10.408;2023-03-31T08:12:14;10.90;1.00
7000;DHT22;3540;53.242;10.408;2023-03-31T08:14:40;11.00;1.00
7000;DHT22;3540;53.242;10.408;2023-03-31T08:17:06;11.00;1.00
7000;DHT22;3540;53.242;10.408;2023-03-31T08:19:31;11.00;1.00
7000;DHT22;3540;53.242;10.408;2023-03-31T08:21:57;11.00;1.00
7000;DHT22;3540;53.242;10.408;2023-03-31T08:24:23;11.00;1.00
7000;DHT22;3540;53.242;10.408;2023-03-31T08:26:48;10.80;1.00
7000;DHT22;3540;53.242;10.408;2023-03-31T08:29:14;10.80;1.00
7000;DHT22;3540;53.242;10.408;2023-03-31T08:31:39;10.80;99.90
7000;DHT22;3540;53.242;10.408;2023-03-31T08:34:05;10.80;99.90
7000;DHT22;3540;53.242;10.408;2023-03-31T08:36:32;10.70;1.00
7000;DHT22;3540;53.242;10.408;2023-03-31T08:38:57;10.70;1.00
7000;DHT22;3540;53.242;10.408;2023-03-31T08:44:01;10.70;99.90
7000;DHT22;3540;53.242;10.408;2023-03-31T08:46:30;10.60;1.00
7000;DHT22;3540;53.242;10.408;2023-03-31T08:48:59;10.60;1.00
7000;DHT22;3540;53.242;10.408;2023-03-31T08:54:02;10.60;99.90
7000;DHT22;3540;53.242;10.408;2023-03-31T08:56:29;10.60;1.00
7000;DHT22;3540;53.242;10.408;2023-03-31T08:58:57;10.60;1.00
7000;DHT22;3540;53.242;10.408;2023-03-31T09:15:42;10.80;1.00
7000;DHT22;3540;53.242;10.408;2023-03-31T09:18:33;10.70;1.00
7000;DHT22;3540;53.242;10.408;2023-03-31T09:24:13;10.90;1.00
7000;DHT22;3540;53.242;10.408;2023-03-31T09:26:46;10.90;1.00
7000;DHT22;3540;53.242;10.408;2023-03-31T09:29:23;10.90;99.90
7000;DHT22;3540;53.242;10.408;2023-03-31T09:31:51;11.00;99.90
7000;DHT22;3540;53.242;10.408;2023-03-31T09:34:28;11.00;98.90
7000;DHT22;3540;53.242;10.408;2023-03-31T09:36:54;11.10;2.40
7000;DHT22;3540;53.242;10.408;2023-03-31T09:39:20;11.30;99.90
7000;DHT22;3540;53.242;10.408;2023-03-31T09:41:48;11.40;1.00
7000;DHT22;3540;53.242;10.408;2023-03-31T09:44:26;11.50;1.00
7000;DHT22;3540;53.242;10.408;2023-03-31T09:46:53;11.50;42.60
7000;DHT22;3540;53.242;10.408;2023-03-31T09:49:22;11.60;99.90
7000;DHT22;3540;53.242;10.408;2023-03-31T09:52:02;11.60;1.00
7000;DHT22;3540;53.242;10.408;2023-03-31T09:54:49;11.70;99.90
7000;DHT22;3540;53.242;10.408;2023-03-31T09:59:50;11.60;53.10
7000;DHT22;3540;53.242;10.408;2023-03-31T10:02:33;11.70;1.00
7000;DHT22;3540;53.242;10.408;2023-03-31T10:05:00;11.70;1.00
7000;DHT22;3540;53.242;10.408;2023-03-31T10:07:26;11.80;1.00
7000;DHT22;3540;53.242;10.408;2023-03-31T10:09:53;11.80;1.00
7000;DHT22;3540;53.242;10.408;2023-03-31T10:12:23;11.90;1.00
7000;DHT22;3540;53.242;10.408;2023-03-31T10:14:52;12.10;1.00
7000;DHT22;3540;53.242;10.408;2023-03-31T10:17:20;12.10;99.90
7000;DHT22;3540;53.242;10.408;2023-03-31T10:19:52;12.20;99.90
7000;DHT22;3540;53.242;10.408;2023-03-31T10:24:51;12.30;99.90
7000;DHT22;3540;53.242;10.408;2023-03-31T10:27:26;12.20;45.20
7000;DHT22;3540;53.242;10.408;2023-03-31T10:29:54;12.10;97.50
7000;DHT22;3540;53.242;10.408;2023-03-31T10:34:48;11.70;1.00
7000;DHT22;3540;53.242;10.408;2023-03-31T10:37:22;11.70;99.90
7000;DHT22;3540;53.242;10.408;2023-03-31T10:40:00;11.80;90.50
7000;DHT22;3540;53.242;10.408;2023-03-31T10:42:26;11.80;1.00
7000;DHT22;3540;53.242;10.408;2023-03-31T10:45:30;11.70;1.00
7000;DHT22;3540;53.242;10.408;2023-03-31T10:47:58;11.60;1.00
7000;DHT22;3540;53.242;10.408;2023-03-31T10:50:33;11.70;1.00
7000;DHT22;3540;53.242;10.408;2023-03-31T10:53:03;11.60;99.90
7000;DHT22;3540;53.242;10.408;2023-03-31T10:55:34;11.50;1.00
7000;DHT22;3540;53.242;10.408;2023-03-31T11:01:21;11.40;49.20
7000;DHT22;3540;53.242;10.408;2023-03-31T11:04:28;11.40;99.90
7000;DHT22;3540;53.242;10.408;2023-03-31T11:12:55;11.20;1.00
7000;DHT22;3540;53.242;10.408;2023-03-31T11:15:47;11.30;99.90
7000;DHT22;3540;53.242;10.408;2023-03-31T11:18:31;11.30;1.00
7000;DHT22;3540;53.242;10.408;2023-03-31T11:24:08;11.20;1.00
7000;DHT22;3540;53.242;10.408;2023-03-31T11:32:26;11.00;99.90
7000;DHT22;3540;53.242;10.408;2023-03-31T11:40:56;11.00;99.90
7000;DHT22;3540;53.242;10.408;2023-03-31T11:43:25;11.00;1.00
7000;DHT22;3540;53.242;10.408;2023-03-31T11:46:00;11.10;1.00
7000;DHT22;3540;53.242;10.408;2023-03-31T11:50:59;11.20;99.90
7000;DHT22;3540;53.242;10.408;2023-03-31T11:53:36;11.10;15.90
7000;DHT22;3540;53.242;10.408;2023-03-31T11:56:03;11.20;1.00
7000;DHT22;3540;53.242;10.408;2023-03-31T11:58:34;11.30;99.90
7000;DHT22;3540;53.242;10.408;2023-03-31T12:01:47;11.30;65.20
7000;DHT22;3540;53.242;10.408;2023-03-31T12:04:27;11.30;99.90
7000;DHT22;3540;53.242;10.408;2023-03-31T12:06:51;11.40;99.90
7000;DHT22;3540;53.242;10.408;2023-03-31T12:09:39;11.50;39.60
7000;DHT22;3540;53.242;10.408;2023-03-31T12:12:21;11.50;1.00
7000;DHT22;3540;53.242;10.408;2023-03-31T12:17:26;11.60;99.90
7000;DHT22;3540;53.242;10.408;2023-03-31T12:20:01;11.70;1.00
7000;DHT22;3540;53.242;10.408;2023-03-31T12:22:38;11.80;1.00
7000;DHT22;3540;53.242;10.408;2023-03-31T12:25:04;11.90;46.20
7000;DHT22;3540;53.242;10.408;2023-03-31T12:27:40;11.90;1.00
7000;DHT22;3540;53.242;10.408;2023-03-31T12:33:02;11.90;99.90
7000;DHT22;3540;53.242;10.408;2023-03-31T12:38:41;12.00;99.90
7000;DHT22;3540;53.242;10.408;2023-03-31T12:41:25;12.20;1.00
7000;DHT22;3540;53.242;10.408;2023-03-31T12:57:34;12.30;1.00
7000;DHT22;3540;53.242;10.408;2023-03-31T13:00:26;12.10;1.00
7000;DHT22;3540;53.242;10.408;2023-03-31T13:05:58;12.10;21.80
7000;DHT22;3540;53.242;10.408;2023-03-31T13:11:15;12.10;1.00
7000;DHT22;3540;53.242;10.408;2023-03-31T13:14:00;12.30;1.00
7000;DHT22;3540;53.242;10.408;2023-03-31T13:16:30;12.50;1.00
7000;DHT22;3540;53.242;10.408;2023-03-31T13:18:57;12.30;1.00
7000;DHT22;3540;53.242;10.408;2023-03-31T13:21:23;12.40;1.00
7000;DHT22;3540;53.242;10.408;2023-03-31T13:23:49;12.40;1.00
7000;DHT22;3540;53.242;10.408;2023-03-31T13:29:18;12.20;99.90
7000;DHT22;3540;53.242;10.408;2023-03-31T13:34:38;11.70;1.00
7000;DHT22;3540;53.242;10.408;2023-03-31T13:42:57;11.60;1.00
7000;DHT22;3540;53.242;10.408;2023-03-31T13:46:25;11.90;1.00
7000;DHT22;3540;53.242;10.408;2023-03-31T13:51:04;12.20;1.00
7000;DHT22;3540;53.242;10.408;2023-03-31T13:54:05;12.60;1.00
7000;DHT22;3540;53.242;10.408;2023-03-31T13:56:42;13.00;99.90
7000;DHT22;3540;53.242;10.408;2023-03-31T14:04:56;12.90;99.90
7000;DHT22;3540;53.242;10.408;2023-03-31T14:07:44;12.80;99.90
7000;DHT22;3540;53.242;10.408;2023-03-31T14:12:51;13.10;85.20
7000;DHT22;3540;53.242;10.408;2023-03-31T14:15:28;13.00;74.30
7000;DHT22;3540;53.242;10.408;2023-03-31T14:17:54;12.90;39.40
7000;DHT22;3540;53.242;10.408;2023-03-31T14:23:27;12.80;23.90
7000;DHT22;3540;53.242;10.408;2023-03-31T14:28:59;12.80;1.00
7000;DHT22;3540;53.242;10.408;2023-03-31T14:34:35;13.20;1.00
7000;DHT22;3540;53.242;10.408;2023-03-31T14:37:13;13.30;1.00
7000;DHT22;3540;53.242;10.408;2023-03-31T14:39:47;13.30;1.00
7000;DHT22;3540;53.242;10.408;2023-03-31T14:42:16;13.10;1.00
7000;DHT22;3540;53.242;10.408;2023-03-31T14:44:43;13.10;1.00
7000;DHT22;3540;53.242;10.408;2023-03-31T14:47:24;13.00;1.00
7000;DHT22;3540;53.242;10.408;2023-03-31T14:50:17;13.00;1.00
7000;DHT22;3540;53.242;10.408;2023-03-31T14:52:47;12.90;1.00
7000;DHT22;3540;53.242;10.408;2023-03-31T14:55:17;13.00;1.00
7000;DHT22;3540;53.242;10.408;2023-03-31T14:57:46;13.00;1.00
7000;DHT22;3540;53.242;10.408;2023-03-31T15:00:23;13.00;1.00
7000;DHT22;3540;53.242;10.408;2023-03-31T15:02:49;13.20;1.00
7000;DHT22;3540;53.242;10.408;2023-03-31T15:05:25;13.20;1.00
7000;DHT22;3540;53.242;10.408;2023-03-31T15:07:59;13.10;1.00
7000;DHT22;3540;53.242;10.408;2023-03-31T15:10:31;13.10;1.00
7000;DHT22;3540;53.242;10.408;2023-03-31T15:12:57;13.10;1.00
7000;DHT22;3540;53.242;10.408;2023-03-31T15:15:23;13.00;1.00
7000;DHT22;3540;53.242;10.408;2023-03-31T15:17:51;12.70;1.00
7000;DHT22;3540;53.242;10.408;2023-03-31T15:22:49;12.60;1.00
7000;DHT22;3540;53.242;10.408;2023-03-31T15:25:15;12.30;1.00
7000;DHT22;3540;53.242;10.408;2023-03-31T15:27:55;12.30;34.90
7000;DHT22;3540;53.242;10.408;2023-03-31T15:30:24;12.20;99.90
7000;DHT22;3540;53.242;10.408;2023-03-31T15:32:51;12.10;99.90
7000;DHT22;3540;53.242;10.408;2023-03-31T15:35:37;12.10;99.90
7000;DHT22;3540;53.242;10.408;2023-03-31T15:38:06;11.90;1.00
7000;DHT22;3540;53.242;10.408;2023-03-31T15:40:38;11.70;1.00
7000;DHT22;3540;53.242;10.408;2023-03-31T15:48:19;11.90;1.00
7000;DHT22;3540;53.242;10.408;2023-03-31T15:50:45;12.30;99.90
7000;DHT22;3540;53.242;10.408;2023-03-31T15:53:50;12.70;16.40
7000;DHT22;3540;53.242;10.408;2023-03-31T15:56:58;13.20;1.00
7000;DHT22;3540;53.242;10.408;2023-03-31T15:59:25;13.60;99.90
7000;DHT22;3540;53.242;10.408;2023-03-31T16:01:53;13.30;22.50
7000;DHT22;3540;53.242;10.408;2023-03-31T16:04:20;13.00;1.00
7000;DHT22;3540;53.242;10.408;2023-03-31T16:06:56;12.60;1.00
7000;DHT22;3540;53.242;10.408;2023-03-31T16:09:36;12.50;1.00
7000;DHT22;3540;53.242;10.408;2023-03-31T16:12:11;12.40;40.50
7000;DHT22;3540;53.242;10.408;2023-03-31T16:14:50;12.40;47.80
7000;DHT22;3540;53.242;10.408;2023-03-31T16:17:58;12.40;59.30
7000;DHT22;3540;53.242;10.408;2023-03-31T16:20:25;12.50;34.20
7000;DHT22;3540;53.242;10.408;2023-03-31T16:22:54;12.40;1.00
7000;DHT22;3540;53.242;10.408;2023-03-31T16:25:24;12.20;13.30
7000;DHT22;3540;53.242;10.408;2023-03-31T16:27:54;12.10;42.40
7000;DHT22;3540;53.242;10.408;2023-03-31T16:30:33;12.00;91.90
7000;DHT22;3540;53.242;10.408;2023-03-31T16:33:03;12.10;99.90
7000;DHT22;3540;53.242;10.408;2023-03-31T16:35:52;12.00;96.60
7000;DHT22;3540;53.242;10.408;2023-03-31T16:38:19;12.00;99.90
7000;DHT22;3540;53.242;10.408;2023-03-31T16:40:48;11.90;99.90
7000;DHT22;3540;53.242;10.408;2023-03-31T16:43:22;11.80;99.90
7000;DHT22;3540;53.242;10.408;2023-03-31T16:45:50;11.80;99.90
7000;DHT22;3540;53.242;10.408;2023-03-31T16:48:17;11.80;99.90
7000;DHT22;3540;53.242;10.408;2023-03-31T16:50:48;11.70;99.90
7000;DHT22;3540;53.242;10.408;2023-03-31T16:53:18;11.70;99.90
7000;DHT22;3540;53.242;10.408;2023-03-31T16:55:44;11.70;99.90
7000;DHT22;3540;53.242;10.408;2023-03-31T16:58:10;11.70;99.90
7000;DHT22;3540;53.242;10.408;2023-03-31T17:00:36;11.70;1.00
7000;DHT22;3540;53.242;10.408;2023-03-31T17:03:05;11.70;1.00
7000;DHT22;3540;53.242;10.408;2023-03-31T17:05:31;11.70;1.00
7000;DHT22;3540;53.242;10.408;2023-03-31T17:08:02;11.60;1.00
7000;DHT22;3540;53.242;10.408;2023-03-31T17:10:27;11.60;1.00
7000;DHT22;3540;53.242;10.408;2023-03-31T17:12:53;11.60;1.00
7000;DHT22;3540;53.242;10.408;2023-03-31T17:15:19;11.60;1.00
7000;DHT22;3540;53.242;10.408;2023-03-31T17:17:44;11.60;1.00
7000;DHT22;3540;53.242;10.408;2023-03-31T17:20:10;11.60;1.00
7000;DHT22;3540;53.242;10.408;2023-03-31T17:22:37;11.60;22.70
7000;DHT22;3540;53.242;10.408;2023-03-31T17:25:03;11.60;99.90
7000;DHT22;3540;53.242;10.408;2023-03-31T17:27:29;11.60;99.90
7000;DHT22;3540;53.242;10.408;2023-03-31T17:29:55;11.50;99.90
7000;DHT22;3540;53.242;10.408;2023-03-31T17:32:21;11.40;99.90
7000;DHT22;3540;53.242;10.408;2023-03-31T17:34:47;11.30;1.00
7000;DHT22;3540;53.242;10.408;2023-03-31T17:37:17;11.20;1.00
7000;DHT22;3540;53.242;10.408;2023-03-31T17:39:43;11.10;82.20
7000;DHT22;3540;53.242;10.408;2023-03-31T17:42:10;11.00;99.90
7000;DHT22;3540;53.242;10.408;2023-03-31T17:44:37;11.00;1.00
7000;DHT22;3540;53.242;10.408;2023-03-31T17:47:03;11.00;1.00
7000;DHT22;3540;53.242;10.408;2023-03-31T17:49:30;10.90;1.00
7000;DHT22;3540;53.242;10.408;2023-03-31T17:51:57;11.00;99.90
7000;DHT22;3540;53.242;10.408;2023-03-31T17:54:23;10.90;99.90
7000;DHT22;3540;53.242;10.408;2023-03-31T17:56:49;10.90;99.90
7000;DHT22;3540;53.242;10.408;2023-03-31T17:59:16;10.90;1.00
7000;DHT22;3540;53.242;10.408;2023-03-31T18:01:42;10.90;37.70
7000;DHT22;3540;53.242;10.408;2023-03-31T18:04:08;10.90;99.90
7000;DHT22;3540;53.242;10.408;2023-03-31T18:06:34;10.90;1.00
7000;DHT22;3540;53.242;10.408;2023-03-31T18:09:00;10.90;1.00
7000;DHT22;3540;53.242;10.408;2023-03-31T18:11:26;10.80;41.70
7000;DHT22;3540;53.242;10.408;2023-03-31T18:13:52;10.80;99.90
7000;DHT22;3540;53.242;10.408;2023-03-31T18:16:18;10.80;1.00
7000;DHT22;3540;53.242;10.408;2023-03-31T18:18:44;10.80;1.00
7000;DHT22;3540;53.242;10.408;2023-03-31T18:21:12;10.80;1.00
7000;DHT22;3540;53.242;10.408;2023-03-31T18:23:38;10.70;99.90
7000;DHT22;3540;53.242;10.408;2023-03-31T18:26:08;10.70;99.90
7000;DHT22;3540;53.242;10.408;2023-03-31T18:28:35;10.70;1.00
7000;DHT22;3540;53.242;10.408;2023-03-31T18:31:05;10.60;1.00
7000;DHT22;3540;53.242;10.408;2023-03-31T18:33:32;10.60;1.00
7000;DHT22;3540;53.242;10.408;2023-03-31T18:35:58;10.60;99.90
7000;DHT22;3540;53.242;10.408;2023-03-31T18:38:24;10.60;99.90
7000;DHT22;3540;53.242;10.408;2023-03-31T18:40:51;10.60;99.90
7000;DHT22;3540;53.242;10.408;2023-03-31T18:43:19;10.60;1.00
7000;DHT22;3540;53.242;10.408;2023-03-31T18:45:49;10.50;1.00
7000;DHT22;3540;53.242;10.408;2023-03-31T18:48:15;10.50;99.90
7000;DHT22;3540;53.242;10.408;2023-03-31T18:50:46;10.50;1.00
7000;DHT22;3540;53.242;10.408;2023-03-31T18:53:13;10.50;1.00
7000;DHT22;3540;53.242;10.408;2023-03-31T18:55:40;10.50;48.90
7000;DHT22;3540;53.242;10.408;2023-03-31T18:58:06;10.40;99.90
7000;DHT22;3540;53.242;10.408;2023-03-31T19:00:31;10.40;1.00
7000;DHT22;3540;53.242;10.408;2023-03-31T19:02:57;10.40;82.10
7000;DHT22;3540;53.242;10.408;2023-03-31T19:05:22;10.40;1.00
7000;DHT22;3540;53.242;10.408;2023-03-31T19:07:48;10.40;1.00
7000;DHT22;3540;53.242;10.408;2023-03-31T19:10:14;10.40;1.00
7000;DHT22;3540;53.242;10.408;2023-03-31T19:12:39;10.40;1.00
7000;DHT22;3540;53.242;10.408;2023-03-31T19:15:05;10.40;99.90